sensor_id;sensor_type;location;lat;lon;timestamp;P1;durP1;ratioP1;P2;durP2;ratioP2
53961;SDS011;39868;53.398;6.564;2023-05-07T00:02:18;12.07;;;6.65;;
53961;SDS011;39868;53.398;6.564;2023-05-07T00:04:45;15.65;;;8.18;;
53961;SDS011;39868;53.398;6.564;2023-05-07T00:07:13;15.90;;;7.10;;
53961;SDS011;39868;53.398;6.564;2023-05-07T00:09:40;14.45;;;7.32;;
53961;SDS011;39868;53.398;6.564;2023-05-07T00:12:07;12.75;;;7.13;;
53961;SDS011;39868;53.398;6.564;2023-05-07T00:14:34;15.23;;;7.68;;
53961;SDS011;39868;53.398;6.564;2023-05-07T00:17:02;9.85;;;6.43;;
53961;SDS011;39868;53.398;6.564;2023-05-07T00:19:29;10.68;;;6.63;;
53961;SDS011;39868;53.398;6.564;2023-05-07T00:21:56;13.50;;;6.65;;
53961;SDS011;39868;53.398;6.564;2023-05-07T00:24:23;12.20;;;7.32;;
53961;SDS011;39868;53.398;6.564;2023-05-07T00:26:50;15.88;;;7.45;;
53961;SDS011;39868;53.398;6.564;2023-05-07T00:29:19;12.50;;;7.20;;
53961;SDS011;39868;53.398;6.564;2023-05-07T00:31:46;16.35;;;7.78;;
53961;SDS011;39868;53.398;6.564;2023-05-07T00:34:15;18.48;;;8.07;;
53961;SDS011;39868;53.398;6.564;2023-05-07T00:36:42;14.55;;;7.95;;
53961;SDS011;39868;53.398;6.564;2023-05-07T00:39:09;15.68;;;8.25;;
53961;SDS011;39868;53.398;6.564;2023-05-07T00:41:37;18.75;;;8.32;;
53961;SDS011;39868;53.398;6.564;2023-05-07T00:44:04;16.80;;;7.68;;
53961;SDS011;39868;53.398;6.564;2023-05-07T00:46:32;15.13;;;7.45;;
53961;SDS011;39868;53.398;6.564;2023-05-07T00:48:59;14.00;;;7.57;;
53961;SDS011;39868;53.398;6.564;2023-05-07T00:51:27;16.45;;;8.13;;
53961;SDS011;39868;53.398;6.564;2023-05-07T00:53:55;15.45;;;7.30;;
53961;SDS011;39868;53.398;6.564;2023-05-07T00:56:22;14.18;;;7.15;;
53961;SDS011;39868;53.398;6.564;2023-05-07T00:58:51;17.45;;;9.07;;
53961;SDS011;39868;53.398;6.564;2023-05-07T01:01:18;15.23;;;9.05;;
53961;SDS011;39868;53.398;6.564;2023-05-07T01:03:46;15.20;;;8.45;;
53961;SDS011;39868;53.398;6.564;2023-05-07T01:06:14;16.27;;;7.95;;
53961;SDS011;39868;53.398;6.564;2023-05-07T01:08:44;14.50;;;8.35;;
53961;SDS011;39868;53.398;6.564;2023-05-07T01:11:12;15.75;;;8.63;;
53961;SDS011;39868;53.398;6.564;2023-05-07T01:13:40;21.30;;;9.55;;
53961;SDS011;39868;53.398;6.564;2023-05-07T01:16:08;20.33;;;10.00;;
53961;SDS011;39868;53.398;6.564;2023-05-07T01:18:36;18.80;;;9.48;;
53961;SDS011;39868;53.398;6.564;2023-05-07T01:21:04;23.13;;;10.90;;
53961;SDS011;39868;53.398;6.564;2023-05-07T01:23:32;23.92;;;9.77;;
53961;SDS011;39868;53.398;6.564;2023-05-07T01:26:02;18.80;;;9.13;;
53961;SDS011;39868;53.398;6.564;2023-05-07T01:28:31;20.77;;;9.55;;
53961;SDS011;39868;53.398;6.564;2023-05-07T01:31:03;20.35;;;9.77;;
53961;SDS011;39868;53.398;6.564;2023-05-07T01:33:34;19.75;;;9.82;;
53961;SDS011;39868;53.398;6.564;2023-05-07T01:36:02;18.17;;;9.18;;
53961;SDS011;39868;53.398;6.564;2023-05-07T01:38:33;19.25;;;9.88;;
53961;SDS011;39868;53.398;6.564;2023-05-07T01:41:02;16.80;;;9.57;;
53961;SDS011;39868;53.398;6.564;2023-05-07T01:43:30;21.27;;;10.25;;
53961;SDS011;39868;53.398;6.564;2023-05-07T01:45:57;17.67;;;9.73;;
53961;SDS011;39868;53.398;6.564;2023-05-07T01:48:26;20.80;;;9.70;;
53961;SDS011;39868;53.398;6.564;2023-05-07T01:50:55;18.70;;;9.73;;
53961;SDS011;39868;53.398;6.564;2023-05-07T01:53:22;21.02;;;10.65;;
53961;SDS011;39868;53.398;6.564;2023-05-07T01:55:49;22.30;;;10.70;;
53961;SDS011;39868;53.398;6.564;2023-05-07T01:58:16;28.65;;;12.30;;
53961;SDS011;39868;53.398;6.564;2023-05-07T02:00:44;27.85;;;12.43;;
53961;SDS011;39868;53.398;6.564;2023-05-07T02:03:11;25.33;;;12.43;;
53961;SDS011;39868;53.398;6.564;2023-05-07T02:05:47;25.60;;;12.18;;
53961;SDS011;39868;53.398;6.564;2023-05-07T02:08:29;27.60;;;11.90;;
53961;SDS011;39868;53.398;6.564;2023-05-07T02:10:57;25.20;;;11.73;;
53961;SDS011;39868;53.398;6.564;2023-05-07T02:13:29;28.40;;;12.95;;
53961;SDS011;39868;53.398;6.564;2023-05-07T02:15:57;27.58;;;13.55;;
53961;SDS011;39868;53.398;6.564;2023-05-07T02:18:25;26.40;;;12.98;;
53961;SDS011;39868;53.398;6.564;2023-05-07T02:20:53;28.50;;;13.18;;
53961;SDS011;39868;53.398;6.564;2023-05-07T02:23:21;29.05;;;13.52;;
53961;SDS011;39868;53.398;6.564;2023-05-07T02:25:48;26.55;;;12.88;;
53961;SDS011;39868;53.398;6.564;2023-05-07T02:28:16;29.42;;;14.02;;
53961;SDS011;39868;53.398;6.564;2023-05-07T02:30:50;26.70;;;12.43;;
53961;SDS011;39868;53.398;6.564;2023-05-07T02:33:18;28.35;;;13.00;;
53961;SDS011;39868;53.398;6.564;2023-05-07T02:35:46;32.35;;;14.02;;
53961;SDS011;39868;53.398;6.564;2023-05-07T02:38:15;27.23;;;12.65;;
53961;SDS011;39868;53.398;6.564;2023-05-07T02:40:42;26.35;;;13.05;;
53961;SDS011;39868;53.398;6.564;2023-05-07T02:43:10;28.83;;;13.98;;
53961;SDS011;39868;53.398;6.564;2023-05-07T02:45:40;25.95;;;12.65;;
53961;SDS011;39868;53.398;6.564;2023-05-07T02:48:08;25.77;;;12.65;;
53961;SDS011;39868;53.398;6.564;2023-05-07T02:50:35;27.10;;;12.10;;
53961;SDS011;39868;53.398;6.564;2023-05-07T02:53:02;25.95;;;12.45;;
53961;SDS011;39868;53.398;6.564;2023-05-07T02:55:30;24.48;;;11.23;;
53961;SDS011;39868;53.398;6.564;2023-05-07T02:57:58;21.90;;;9.82;;
53961;SDS011;39868;53.398;6.564;2023-05-07T03:00:25;20.33;;;10.07;;
53961;SDS011;39868;53.398;6.564;2023-05-07T03:03:16;18.30;;;10.43;;
53961;SDS011;39868;53.398;6.564;2023-05-07T03:05:43;19.25;;;9.07;;
53961;SDS011;39868;53.398;6.564;2023-05-07T03:08:10;18.92;;;10.02;;
53961;SDS011;39868;53.398;6.564;2023-05-07T03:10:38;18.17;;;9.05;;
53961;SDS011;39868;53.398;6.564;2023-05-07T03:13:05;14.38;;;8.20;;
53961;SDS011;39868;53.398;6.564;2023-05-07T03:15:33;17.00;;;8.77;;
53961;SDS011;39868;53.398;6.564;2023-05-07T03:18:00;17.25;;;8.35;;
53961;SDS011;39868;53.398;6.564;2023-05-07T03:20:27;16.00;;;8.70;;
53961;SDS011;39868;53.398;6.564;2023-05-07T03:22:55;19.63;;;8.70;;
53961;SDS011;39868;53.398;6.564;2023-05-07T03:25:22;19.95;;;9.13;;
53961;SDS011;39868;53.398;6.564;2023-05-07T03:27:49;19.60;;;8.77;;
53961;SDS011;39868;53.398;6.564;2023-05-07T03:30:20;17.50;;;8.80;;
53961;SDS011;39868;53.398;6.564;2023-05-07T03:32:47;20.73;;;10.73;;
53961;SDS011;39868;53.398;6.564;2023-05-07T03:35:15;19.80;;;10.23;;
53961;SDS011;39868;53.398;6.564;2023-05-07T03:37:42;21.92;;;11.20;;
53961;SDS011;39868;53.398;6.564;2023-05-07T03:40:11;23.17;;;11.38;;
53961;SDS011;39868;53.398;6.564;2023-05-07T03:42:52;23.60;;;11.75;;
53961;SDS011;39868;53.398;6.564;2023-05-07T03:45:22;26.13;;;12.48;;
53961;SDS011;39868;53.398;6.564;2023-05-07T03:47:58;23.60;;;11.77;;
53961;SDS011;39868;53.398;6.564;2023-05-07T03:50:26;27.17;;;12.50;;
53961;SDS011;39868;53.398;6.564;2023-05-07T03:52:53;26.58;;;13.35;;
53961;SDS011;39868;53.398;6.564;2023-05-07T03:55:22;27.67;;;13.20;;
53961;SDS011;39868;53.398;6.564;2023-05-07T03:57:54;26.88;;;12.82;;
53961;SDS011;39868;53.398;6.564;2023-05-07T04:00:26;27.83;;;13.02;;
53961;SDS011;39868;53.398;6.564;2023-05-07T04:02:58;28.30;;;13.70;;
53961;SDS011;39868;53.398;6.564;2023-05-07T04:05:29;29.65;;;13.43;;
53961;SDS011;39868;53.398;6.564;2023-05-07T04:08:00;29.92;;;14.85;;
53961;SDS011;39868;53.398;6.564;2023-05-07T04:10:35;30.70;;;13.00;;
53961;SDS011;39868;53.398;6.564;2023-05-07T04:13:07;27.10;;;12.37;;
53961;SDS011;39868;53.398;6.564;2023-05-07T04:15:35;29.80;;;13.40;;
53961;SDS011;39868;53.398;6.564;2023-05-07T04:18:05;23.60;;;11.88;;
53961;SDS011;39868;53.398;6.564;2023-05-07T04:20:34;21.77;;;11.02;;
53961;SDS011;39868;53.398;6.564;2023-05-07T04:23:06;24.35;;;11.90;;
53961;SDS011;39868;53.398;6.564;2023-05-07T04:25:33;27.05;;;11.13;;
53961;SDS011;39868;53.398;6.564;2023-05-07T04:28:08;24.27;;;11.05;;
53961;SDS011;39868;53.398;6.564;2023-05-07T04:30:36;21.67;;;10.80;;
53961;SDS011;39868;53.398;6.564;2023-05-07T04:33:05;20.23;;;11.70;;
53961;SDS011;39868;53.398;6.564;2023-05-07T04:35:34;23.10;;;10.43;;
53961;SDS011;39868;53.398;6.564;2023-05-07T04:38:03;23.30;;;10.50;;
53961;SDS011;39868;53.398;6.564;2023-05-07T04:40:31;25.30;;;11.60;;
53961;SDS011;39868;53.398;6.564;2023-05-07T04:43:00;26.90;;;12.48;;
53961;SDS011;39868;53.398;6.564;2023-05-07T04:45:31;27.42;;;13.23;;
53961;SDS011;39868;53.398;6.564;2023-05-07T04:47:58;25.40;;;12.55;;
53961;SDS011;39868;53.398;6.564;2023-05-07T04:50:26;26.58;;;12.45;;
53961;SDS011;39868;53.398;6.564;2023-05-07T04:52:57;27.00;;;11.90;;
53961;SDS011;39868;53.398;6.564;2023-05-07T04:55:25;26.48;;;12.05;;
53961;SDS011;39868;53.398;6.564;2023-05-07T04:57:52;30.17;;;12.38;;
53961;SDS011;39868;53.398;6.564;2023-05-07T05:00:20;22.33;;;11.70;;
53961;SDS011;39868;53.398;6.564;2023-05-07T05:02:49;22.52;;;11.38;;
53961;SDS011;39868;53.398;6.564;2023-05-07T05:05:19;22.52;;;11.55;;
53961;SDS011;39868;53.398;6.564;2023-05-07T05:07:49;21.88;;;11.93;;
53961;SDS011;39868;53.398;6.564;2023-05-07T05:10:18;23.35;;;11.07;;
53961;SDS011;39868;53.398;6.564;2023-05-07T05:12:49;23.42;;;11.43;;
53961;SDS011;39868;53.398;6.564;2023-05-07T05:15:17;24.58;;;11.13;;
53961;SDS011;39868;53.398;6.564;2023-05-07T05:17:44;23.27;;;11.77;;
53961;SDS011;39868;53.398;6.564;2023-05-07T05:20:12;23.85;;;11.68;;
53961;SDS011;39868;53.398;6.564;2023-05-07T05:22:41;23.55;;;12.05;;
53961;SDS011;39868;53.398;6.564;2023-05-07T05:25:09;23.55;;;11.85;;
53961;SDS011;39868;53.398;6.564;2023-05-07T05:27:36;28.58;;;11.55;;
53961;SDS011;39868;53.398;6.564;2023-05-07T05:30:04;25.10;;;12.35;;
53961;SDS011;39868;53.398;6.564;2023-05-07T05:32:33;25.88;;;13.38;;
53961;SDS011;39868;53.398;6.564;2023-05-07T05:35:01;22.35;;;11.50;;
53961;SDS011;39868;53.398;6.564;2023-05-07T05:37:29;24.10;;;11.80;;
53961;SDS011;39868;53.398;6.564;2023-05-07T05:39:59;26.98;;;12.30;;
53961;SDS011;39868;53.398;6.564;2023-05-07T05:42:28;23.80;;;12.35;;
53961;SDS011;39868;53.398;6.564;2023-05-07T05:44:56;23.98;;;12.27;;
53961;SDS011;39868;53.398;6.564;2023-05-07T05:47:25;22.17;;;11.77;;
53961;SDS011;39868;53.398;6.564;2023-05-07T05:49:54;21.35;;;10.25;;
53961;SDS011;39868;53.398;6.564;2023-05-07T05:52:21;19.52;;;10.65;;
53961;SDS011;39868;53.398;6.564;2023-05-07T05:54:50;19.88;;;9.80;;
53961;SDS011;39868;53.398;6.564;2023-05-07T05:57:18;17.02;;;9.48;;
53961;SDS011;39868;53.398;6.564;2023-05-07T05:59:46;17.15;;;9.30;;
53961;SDS011;39868;53.398;6.564;2023-05-07T06:02:14;19.73;;;8.77;;
53961;SDS011;39868;53.398;6.564;2023-05-07T06:04:42;19.30;;;9.18;;
53961;SDS011;39868;53.398;6.564;2023-05-07T06:07:13;21.77;;;11.40;;
53961;SDS011;39868;53.398;6.564;2023-05-07T06:09:40;23.95;;;11.60;;
53961;SDS011;39868;53.398;6.564;2023-05-07T06:12:07;30.33;;;12.95;;
53961;SDS011;39868;53.398;6.564;2023-05-07T06:14:35;24.83;;;11.57;;
53961;SDS011;39868;53.398;6.564;2023-05-07T06:17:02;25.73;;;12.38;;
53961;SDS011;39868;53.398;6.564;2023-05-07T06:19:30;22.65;;;12.50;;
53961;SDS011;39868;53.398;6.564;2023-05-07T06:21:58;24.63;;;11.52;;
53961;SDS011;39868;53.398;6.564;2023-05-07T06:24:29;24.10;;;11.45;;
53961;SDS011;39868;53.398;6.564;2023-05-07T06:26:56;24.48;;;12.07;;
53961;SDS011;39868;53.398;6.564;2023-05-07T06:29:26;22.10;;;11.13;;
53961;SDS011;39868;53.398;6.564;2023-05-07T06:31:53;24.73;;;12.52;;
53961;SDS011;39868;53.398;6.564;2023-05-07T06:34:22;22.17;;;11.68;;
53961;SDS011;39868;53.398;6.564;2023-05-07T06:36:49;19.98;;;10.18;;
53961;SDS011;39868;53.398;6.564;2023-05-07T06:39:36;20.33;;;10.63;;
53961;SDS011;39868;53.398;6.564;2023-05-07T06:42:04;18.27;;;9.90;;
53961;SDS011;39868;53.398;6.564;2023-05-07T06:44:32;21.80;;;10.45;;
53961;SDS011;39868;53.398;6.564;2023-05-07T06:47:11;18.58;;;9.00;;
53961;SDS011;39868;53.398;6.564;2023-05-07T06:49:43;17.00;;;8.35;;
53961;SDS011;39868;53.398;6.564;2023-05-07T06:52:14;18.42;;;9.02;;
53961;SDS011;39868;53.398;6.564;2023-05-07T06:54:42;19.27;;;9.68;;
53961;SDS011;39868;53.398;6.564;2023-05-07T06:57:10;22.70;;;10.68;;
53961;SDS011;39868;53.398;6.564;2023-05-07T06:59:37;22.95;;;10.88;;
53961;SDS011;39868;53.398;6.564;2023-05-07T07:02:05;23.63;;;11.75;;
53961;SDS011;39868;53.398;6.564;2023-05-07T07:04:32;25.45;;;11.90;;
53961;SDS011;39868;53.398;6.564;2023-05-07T07:07:04;22.10;;;10.53;;
53961;SDS011;39868;53.398;6.564;2023-05-07T07:09:32;27.55;;;12.88;;
53961;SDS011;39868;53.398;6.564;2023-05-07T07:12:00;25.60;;;11.90;;
53961;SDS011;39868;53.398;6.564;2023-05-07T07:14:28;23.13;;;11.40;;
53961;SDS011;39868;53.398;6.564;2023-05-07T07:16:56;22.98;;;11.95;;
53961;SDS011;39868;53.398;6.564;2023-05-07T07:19:23;25.63;;;12.18;;
53961;SDS011;39868;53.398;6.564;2023-05-07T07:21:54;24.33;;;12.23;;
53961;SDS011;39868;53.398;6.564;2023-05-07T07:24:21;24.45;;;11.73;;
53961;SDS011;39868;53.398;6.564;2023-05-07T07:26:53;21.10;;;10.73;;
53961;SDS011;39868;53.398;6.564;2023-05-07T07:29:23;19.55;;;10.90;;
53961;SDS011;39868;53.398;6.564;2023-05-07T07:31:53;24.48;;;12.27;;
53961;SDS011;39868;53.398;6.564;2023-05-07T07:34:20;25.38;;;11.50;;
53961;SDS011;39868;53.398;6.564;2023-05-07T07:36:49;22.33;;;11.88;;
53961;SDS011;39868;53.398;6.564;2023-05-07T07:39:17;26.05;;;12.32;;
53961;SDS011;39868;53.398;6.564;2023-05-07T07:41:47;23.13;;;12.15;;
53961;SDS011;39868;53.398;6.564;2023-05-07T07:44:15;22.45;;;12.13;;
53961;SDS011;39868;53.398;6.564;2023-05-07T07:46:48;27.50;;;13.20;;
53961;SDS011;39868;53.398;6.564;2023-05-07T07:49:15;26.33;;;12.05;;
53961;SDS011;39868;53.398;6.564;2023-05-07T07:51:43;27.80;;;13.52;;
53961;SDS011;39868;53.398;6.564;2023-05-07T07:54:12;26.95;;;12.73;;
53961;SDS011;39868;53.398;6.564;2023-05-07T07:56:39;22.05;;;11.77;;
53961;SDS011;39868;53.398;6.564;2023-05-07T07:59:08;25.08;;;12.52;;
53961;SDS011;39868;53.398;6.564;2023-05-07T08:01:38;25.33;;;12.80;;
53961;SDS011;39868;53.398;6.564;2023-05-07T08:04:06;27.52;;;12.73;;
53961;SDS011;39868;53.398;6.564;2023-05-07T08:06:37;27.67;;;12.68;;
53961;SDS011;39868;53.398;6.564;2023-05-07T08:09:07;29.50;;;13.55;;
53961;SDS011;39868;53.398;6.564;2023-05-07T08:11:35;25.88;;;13.65;;
53961;SDS011;39868;53.398;6.564;2023-05-07T08:14:04;26.00;;;12.98;;
53961;SDS011;39868;53.398;6.564;2023-05-07T08:16:31;30.13;;;14.57;;
53961;SDS011;39868;53.398;6.564;2023-05-07T08:19:00;30.05;;;14.77;;
53961;SDS011;39868;53.398;6.564;2023-05-07T08:21:27;29.90;;;14.05;;
53961;SDS011;39868;53.398;6.564;2023-05-07T08:23:54;28.88;;;14.23;;
53961;SDS011;39868;53.398;6.564;2023-05-07T08:26:22;27.35;;;12.25;;
53961;SDS011;39868;53.398;6.564;2023-05-07T08:28:49;27.33;;;13.85;;
53961;SDS011;39868;53.398;6.564;2023-05-07T08:31:16;29.35;;;14.35;;
53961;SDS011;39868;53.398;6.564;2023-05-07T08:33:44;28.77;;;13.93;;
53961;SDS011;39868;53.398;6.564;2023-05-07T08:36:12;33.55;;;14.57;;
53961;SDS011;39868;53.398;6.564;2023-05-07T08:38:39;30.25;;;14.93;;
53961;SDS011;39868;53.398;6.564;2023-05-07T08:41:12;32.35;;;15.50;;
53961;SDS011;39868;53.398;6.564;2023-05-07T08:46:11;32.65;;;15.68;;
53961;SDS011;39868;53.398;6.564;2023-05-07T08:48:44;29.23;;;14.90;;
53961;SDS011;39868;53.398;6.564;2023-05-07T08:51:16;28.77;;;15.20;;
53961;SDS011;39868;53.398;6.564;2023-05-07T08:53:46;34.35;;;15.32;;
53961;SDS011;39868;53.398;6.564;2023-05-07T08:56:20;34.30;;;15.52;;
53961;SDS011;39868;53.398;6.564;2023-05-07T08:58:50;30.73;;;16.17;;
53961;SDS011;39868;53.398;6.564;2023-05-07T09:01:18;30.80;;;16.20;;
53961;SDS011;39868;53.398;6.564;2023-05-07T09:03:49;32.43;;;16.77;;
53961;SDS011;39868;53.398;6.564;2023-05-07T09:06:19;31.73;;;16.65;;
53961;SDS011;39868;53.398;6.564;2023-05-07T09:08:53;31.92;;;16.05;;
53961;SDS011;39868;53.398;6.564;2023-05-07T09:11:24;34.30;;;17.48;;
53961;SDS011;39868;53.398;6.564;2023-05-07T09:13:54;31.13;;;16.00;;
53961;SDS011;39868;53.398;6.564;2023-05-07T09:16:24;34.90;;;17.83;;
53961;SDS011;39868;53.398;6.564;2023-05-07T09:18:53;35.80;;;17.83;;
53961;SDS011;39868;53.398;6.564;2023-05-07T09:21:22;35.70;;;18.90;;
53961;SDS011;39868;53.398;6.564;2023-05-07T09:23:52;33.08;;;17.45;;
53961;SDS011;39868;53.398;6.564;2023-05-07T09:26:26;32.78;;;18.17;;
53961;SDS011;39868;53.398;6.564;2023-05-07T09:28:55;34.78;;;18.00;;
53961;SDS011;39868;53.398;6.564;2023-05-07T09:31:22;35.00;;;18.33;;
53961;SDS011;39868;53.398;6.564;2023-05-07T09:33:54;33.27;;;18.27;;
53961;SDS011;39868;53.398;6.564;2023-05-07T09:36:25;34.17;;;18.08;;
53961;SDS011;39868;53.398;6.564;2023-05-07T09:38:53;36.58;;;19.02;;
53961;SDS011;39868;53.398;6.564;2023-05-07T09:41:23;32.63;;;17.65;;
53961;SDS011;39868;53.398;6.564;2023-05-07T09:44:00;34.92;;;18.80;;
53961;SDS011;39868;53.398;6.564;2023-05-07T09:46:36;35.80;;;19.50;;
53961;SDS011;39868;53.398;6.564;2023-05-07T09:49:22;38.17;;;19.70;;
53961;SDS011;39868;53.398;6.564;2023-05-07T09:51:58;34.22;;;18.95;;
53961;SDS011;39868;53.398;6.564;2023-05-07T09:54:29;36.15;;;19.40;;
53961;SDS011;39868;53.398;6.564;2023-05-07T09:56:58;33.53;;;19.15;;
53961;SDS011;39868;53.398;6.564;2023-05-07T09:59:28;33.25;;;18.25;;
53961;SDS011;39868;53.398;6.564;2023-05-07T10:04:34;27.92;;;16.65;;
53961;SDS011;39868;53.398;6.564;2023-05-07T10:07:03;31.50;;;18.52;;
53961;SDS011;39868;53.398;6.564;2023-05-07T10:09:37;28.98;;;17.75;;
53961;SDS011;39868;53.398;6.564;2023-05-07T10:12:23;26.93;;;17.50;;
53961;SDS011;39868;53.398;6.564;2023-05-07T10:14:57;27.63;;;16.80;;
53961;SDS011;39868;53.398;6.564;2023-05-07T10:17:27;25.90;;;15.52;;
53961;SDS011;39868;53.398;6.564;2023-05-07T10:20:01;28.33;;;17.45;;
53961;SDS011;39868;53.398;6.564;2023-05-07T10:22:43;25.15;;;16.80;;
53961;SDS011;39868;53.398;6.564;2023-05-07T10:25:25;25.92;;;16.52;;
53961;SDS011;39868;53.398;6.564;2023-05-07T10:27:59;24.95;;;17.08;;
53961;SDS011;39868;53.398;6.564;2023-05-07T10:33:11;23.63;;;16.38;;
53961;SDS011;39868;53.398;6.564;2023-05-07T10:35:43;24.77;;;15.27;;
53961;SDS011;39868;53.398;6.564;2023-05-07T10:38:14;24.25;;;15.05;;
53961;SDS011;39868;53.398;6.564;2023-05-07T10:40:43;23.10;;;14.18;;
53961;SDS011;39868;53.398;6.564;2023-05-07T10:43:15;22.92;;;15.25;;
53961;SDS011;39868;53.398;6.564;2023-05-07T10:46:34;19.20;;;13.65;;
53961;SDS011;39868;53.398;6.564;2023-05-07T10:52:18;19.80;;;12.43;;
53961;SDS011;39868;53.398;6.564;2023-05-07T10:55:21;15.82;;;10.93;;
53961;SDS011;39868;53.398;6.564;2023-05-07T10:58:27;18.50;;;11.48;;
53961;SDS011;39868;53.398;6.564;2023-05-07T11:01:15;21.30;;;12.70;;
53961;SDS011;39868;53.398;6.564;2023-05-07T11:04:23;18.05;;;12.63;;
53961;SDS011;39868;53.398;6.564;2023-05-07T11:07:21;19.23;;;13.45;;
53961;SDS011;39868;53.398;6.564;2023-05-07T11:10:07;23.47;;;14.87;;
53961;SDS011;39868;53.398;6.564;2023-05-07T11:13:06;22.25;;;15.00;;
53961;SDS011;39868;53.398;6.564;2023-05-07T11:15:48;28.98;;;17.85;;
53961;SDS011;39868;53.398;6.564;2023-05-07T11:18:30;26.52;;;17.27;;
53961;SDS011;39868;53.398;6.564;2023-05-07T11:21:34;28.27;;;17.48;;
53961;SDS011;39868;53.398;6.564;2023-05-07T11:24:27;28.75;;;17.33;;
53961;SDS011;39868;53.398;6.564;2023-05-07T11:27:02;24.73;;;16.00;;
53961;SDS011;39868;53.398;6.564;2023-05-07T11:29:36;29.27;;;18.27;;
53961;SDS011;39868;53.398;6.564;2023-05-07T11:32:12;29.63;;;17.95;;
53961;SDS011;39868;53.398;6.564;2023-05-07T11:34:55;25.98;;;16.98;;
53961;SDS011;39868;53.398;6.564;2023-05-07T11:37:40;20.67;;;14.23;;
53961;SDS011;39868;53.398;6.564;2023-05-07T11:40:12;20.27;;;13.68;;
53961;SDS011;39868;53.398;6.564;2023-05-07T11:42:50;17.77;;;12.25;;
53961;SDS011;39868;53.398;6.564;2023-05-07T11:45:24;20.58;;;14.60;;
53961;SDS011;39868;53.398;6.564;2023-05-07T11:47:58;20.75;;;14.30;;
53961;SDS011;39868;53.398;6.564;2023-05-07T11:50:31;22.20;;;14.80;;
53961;SDS011;39868;53.398;6.564;2023-05-07T11:55:42;28.08;;;16.88;;
53961;SDS011;39868;53.398;6.564;2023-05-07T11:58:20;23.95;;;16.60;;
53961;SDS011;39868;53.398;6.564;2023-05-07T12:00:53;25.05;;;17.30;;
53961;SDS011;39868;53.398;6.564;2023-05-07T12:03:24;28.00;;;17.52;;
53961;SDS011;39868;53.398;6.564;2023-05-07T12:06:01;22.05;;;16.50;;
53961;SDS011;39868;53.398;6.564;2023-05-07T12:08:40;25.48;;;16.08;;
53961;SDS011;39868;53.398;6.564;2023-05-07T12:11:21;21.85;;;15.52;;
53961;SDS011;39868;53.398;6.564;2023-05-07T12:13:54;22.35;;;15.75;;
53961;SDS011;39868;53.398;6.564;2023-05-07T12:16:25;20.80;;;14.90;;
53961;SDS011;39868;53.398;6.564;2023-05-07T12:18:54;20.38;;;13.73;;
53961;SDS011;39868;53.398;6.564;2023-05-07T12:21:31;17.90;;;13.57;;
53961;SDS011;39868;53.398;6.564;2023-05-07T12:24:01;19.75;;;14.07;;
53961;SDS011;39868;53.398;6.564;2023-05-07T12:26:29;19.98;;;14.55;;
53961;SDS011;39868;53.398;6.564;2023-05-07T12:28:59;21.73;;;15.65;;
53961;SDS011;39868;53.398;6.564;2023-05-07T12:31:26;24.70;;;17.65;;
53961;SDS011;39868;53.398;6.564;2023-05-07T12:33:57;20.63;;;15.73;;
53961;SDS011;39868;53.398;6.564;2023-05-07T12:36:36;21.85;;;15.82;;
53961;SDS011;39868;53.398;6.564;2023-05-07T12:39:06;19.98;;;15.52;;
53961;SDS011;39868;53.398;6.564;2023-05-07T12:41:56;24.35;;;16.75;;
53961;SDS011;39868;53.398;6.564;2023-05-07T12:44:30;25.92;;;16.95;;
53961;SDS011;39868;53.398;6.564;2023-05-07T12:47:08;19.65;;;15.40;;
53961;SDS011;39868;53.398;6.564;2023-05-07T12:49:43;23.42;;;16.63;;
53961;SDS011;39868;53.398;6.564;2023-05-07T12:52:14;19.52;;;15.63;;
53961;SDS011;39868;53.398;6.564;2023-05-07T12:54:43;22.25;;;15.98;;
53961;SDS011;39868;53.398;6.564;2023-05-07T12:57:12;21.77;;;16.65;;
53961;SDS011;39868;53.398;6.564;2023-05-07T12:59:43;22.55;;;16.58;;
53961;SDS011;39868;53.398;6.564;2023-05-07T13:02:12;20.50;;;15.50;;
53961;SDS011;39868;53.398;6.564;2023-05-07T13:04:43;20.50;;;15.25;;
53961;SDS011;39868;53.398;6.564;2023-05-07T13:07:11;21.15;;;15.73;;
53961;SDS011;39868;53.398;6.564;2023-05-07T13:09:43;17.88;;;14.73;;
53961;SDS011;39868;53.398;6.564;2023-05-07T13:12:16;16.17;;;14.27;;
53961;SDS011;39868;53.398;6.564;2023-05-07T13:14:46;15.50;;;12.00;;
53961;SDS011;39868;53.398;6.564;2023-05-07T13:17:15;14.88;;;11.25;;
53961;SDS011;39868;53.398;6.564;2023-05-07T13:19:46;13.20;;;9.53;;
53961;SDS011;39868;53.398;6.564;2023-05-07T13:22:15;9.52;;;8.43;;
53961;SDS011;39868;53.398;6.564;2023-05-07T13:24:46;9.90;;;8.95;;
53961;SDS011;39868;53.398;6.564;2023-05-07T13:27:14;9.32;;;8.30;;
53961;SDS011;39868;53.398;6.564;2023-05-07T13:29:44;12.98;;;10.32;;
53961;SDS011;39868;53.398;6.564;2023-05-07T13:32:13;10.05;;;9.00;;
53961;SDS011;39868;53.398;6.564;2023-05-07T13:34:42;9.70;;;7.93;;
53961;SDS011;39868;53.398;6.564;2023-05-07T13:37:14;9.40;;;8.45;;
53961;SDS011;39868;53.398;6.564;2023-05-07T13:39:48;8.55;;;7.68;;
53961;SDS011;39868;53.398;6.564;2023-05-07T13:42:22;11.30;;;9.50;;
53961;SDS011;39868;53.398;6.564;2023-05-07T13:44:51;11.38;;;10.05;;
53961;SDS011;39868;53.398;6.564;2023-05-07T13:47:26;13.70;;;11.55;;
53961;SDS011;39868;53.398;6.564;2023-05-07T13:49:57;13.35;;;11.98;;
53961;SDS011;39868;53.398;6.564;2023-05-07T13:52:25;13.27;;;11.85;;
53961;SDS011;39868;53.398;6.564;2023-05-07T13:55:03;11.43;;;9.77;;
53961;SDS011;39868;53.398;6.564;2023-05-07T13:57:31;11.90;;;10.70;;
53961;SDS011;39868;53.398;6.564;2023-05-07T14:00:03;14.27;;;11.90;;
53961;SDS011;39868;53.398;6.564;2023-05-07T14:02:45;13.32;;;11.93;;
53961;SDS011;39868;53.398;6.564;2023-05-07T14:05:15;13.70;;;12.15;;
53961;SDS011;39868;53.398;6.564;2023-05-07T14:07:47;12.98;;;11.68;;
53961;SDS011;39868;53.398;6.564;2023-05-07T14:10:19;13.90;;;12.50;;
53961;SDS011;39868;53.398;6.564;2023-05-07T14:12:47;12.70;;;11.32;;
53961;SDS011;39868;53.398;6.564;2023-05-07T14:15:18;11.70;;;9.70;;
53961;SDS011;39868;53.398;6.564;2023-05-07T14:17:48;11.55;;;10.43;;
53961;SDS011;39868;53.398;6.564;2023-05-07T14:20:16;11.85;;;9.75;;
53961;SDS011;39868;53.398;6.564;2023-05-07T14:22:46;10.80;;;9.70;;
53961;SDS011;39868;53.398;6.564;2023-05-07T14:25:23;11.38;;;10.18;;
53961;SDS011;39868;53.398;6.564;2023-05-07T14:27:51;12.15;;;10.65;;
53961;SDS011;39868;53.398;6.564;2023-05-07T14:30:24;11.73;;;10.52;;
53961;SDS011;39868;53.398;6.564;2023-05-07T14:32:54;13.98;;;10.73;;
53961;SDS011;39868;53.398;6.564;2023-05-07T14:35:22;11.20;;;10.10;;
53961;SDS011;39868;53.398;6.564;2023-05-07T14:37:54;10.80;;;9.48;;
53961;SDS011;39868;53.398;6.564;2023-05-07T14:40:26;11.73;;;9.98;;
53961;SDS011;39868;53.398;6.564;2023-05-07T14:42:58;10.80;;;9.80;;
53961;SDS011;39868;53.398;6.564;2023-05-07T14:45:27;11.30;;;10.23;;
53961;SDS011;39868;53.398;6.564;2023-05-07T14:48:01;11.73;;;10.52;;
53961;SDS011;39868;53.398;6.564;2023-05-07T14:50:32;11.70;;;10.60;;
53961;SDS011;39868;53.398;6.564;2023-05-07T14:53:07;10.13;;;9.13;;
53961;SDS011;39868;53.398;6.564;2023-05-07T14:55:45;9.35;;;8.48;;
53961;SDS011;39868;53.398;6.564;2023-05-07T14:58:17;10.02;;;9.10;;
53961;SDS011;39868;53.398;6.564;2023-05-07T15:00:54;9.77;;;8.88;;
53961;SDS011;39868;53.398;6.564;2023-05-07T15:03:24;9.65;;;8.73;;